Time;durP1;ratioP1;P1;durP2;ratioP2;P2;SDS_P1;SDS_P2;PMS_P1;PMS_P2;Temp;Humidity;BMP_temperature;BMP_pressure;BME280_temperature;BME280_humidity;BME280_pressure;Samples;Min_cycle;Max_cycle;Signal;HPM_P1;HPM_P2
2022/12/13 11:27:08;;;;;;;17.27;12.40;;;;;;;8.48;53.57;98495.91;5109665;28;20575;-80
2022/12/13 11:29:51;;;;;;;16.40;11.97;;;;;;;9.70;47.80;98524.34;5105796;28;40649;-80
2022/12/13 11:32:33;;;;;;;15.90;11.90;;;;;;;8.93;47.73;98503.69;5105430;28;42724;-79
2022/12/13 11:35:10;;;;;;;17.60;12.50;;;;;;;7.90;49.27;98488.75;5107005;28;42729;-80
2022/12/13 11:37:46;;;;;;;14.97;11.50;;;;;;;7.33;49.63;98472.66;5108294;28;42132;-80
2022/12/13 11:40:17;;;;;;;15.73;11.43;;;;;;;7.34;48.54;98505.97;5090838;28;40247;-80
2022/12/13 11:42:53;;;;;;;13.83;10.50;;;;;;;8.24;45.78;98504.31;5091224;28;41407;-80
2022/12/13 11:45:24;;;;;;;13.30;10.57;;;;;;;8.15;43.83;98525.97;5090655;28;41691;-79
2022/12/13 11:48:01;;;;;;;11.77;10.43;;;;;;;7.45;44.85;98497.47;5106064;28;43184;-80
2022/12/13 11:50:34;;;;;;;15.47;11.57;;;;;;;6.84;46.84;98480.59;5091168;28;40454;-79
2022/12/13 11:53:20;;;;;;;13.83;11.27;;;;;;;7.35;47.01;98491.84;5107891;28;40489;-80
2022/12/13 11:55:52;;;;;;;14.87;10.53;;;;;;;7.58;45.01;98498.47;5106492;28;42807;-80
2022/12/13 11:58:32;;;;;;;13.40;9.67;;;;;;;7.46;45.23;98493.91;5090979;28;41843;-79
2022/12/13 12:01:04;;;;;;;14.20;10.13;;;;;;;6.99;46.84;98472.81;5108328;28;38649;-82
2022/12/13 12:03:36;;;;;;;14.10;10.27;;;;;;;6.52;46.83;98473.56;5091198;28;40909;-80
2022/12/13 12:06:11;;;;;;;12.10;9.50;;;;;;;6.23;48.17;98450.53;5107655;28;41541;-82
2022/12/13 12:08:45;;;;;;;15.63;11.43;;;;;;;6.27;47.76;98462.59;5104884;28;41913;-79
2022/12/13 12:11:21;;;;;;;15.90;10.53;;;;;;;6.63;49.15;98444.91;5090684;28;39442;-80
2022/12/13 12:13:55;;;;;;;14.63;11.13;;;;;;;7.61;46.50;98460.56;5105822;28;42289;-81
2022/12/13 12:16:34;;;;;;;13.90;10.37;;;;;;;9.49;43.55;98475.50;5090568;28;43277;-80
2022/12/13 12:19:02;;;;;;;12.47;10.03;;;;;;;11.77;39.82;98457.06;5090630;28;42292;-81
2022/12/13 12:21:37;;;;;;;14.07;10.40;;;;;;;13.95;36.91;98515.34;5107559;28;39567;-82
2022/12/13 12:24:15;;;;;;;10.33;9.13;;;;;;;14.63;34.70;98534.59;5090627;28;41139;-80
2022/12/13 12:26:52;;;;;;;12.07;10.07;;;;;;;14.93;33.36;98544.50;5090548;28;42637;-82
2022/12/13 12:29:52;;;;;;;11.37;9.77;;;;;;;15.62;32.89;98523.38;5107486;28;43521;-81
2022/12/13 12:32:31;;;;;;;10.60;9.47;;;;;;;16.30;33.14;98506.50;5124688;27;40173;-82
2022/12/13 12:35:16;;;;;;;11.93;9.03;;;;;;;16.29;32.14;98491.44;5105002;28;41761;-82
2022/12/13 12:37:52;;;;;;;12.47;9.63;;;;;;;15.57;33.74;98490.91;5096923;28;43813;-82
2022/12/13 12:40:43;;;;;;;11.83;9.83;;;;;;;15.34;33.48;98500.88;5091968;28;42526;-81
2022/12/13 12:43:20;;;;;;;12.70;10.10;;;;;;;14.61;32.88;98513.41;5095257;28;40481;-81
2022/12/13 12:46:03;;;;;;;14.67;10.87;;;;;;;14.42;33.13;98501.75;5076997;28;41971;-81
2022/12/13 12:48:48;;;;;;;11.97;9.77;;;;;;;14.15;34.56;98478.22;5076459;28;41479;-81
2022/12/13 12:51:21;;;;;;;12.30;9.77;;;;;;;13.09;35.48;98451.38;5076062;28;41483;-80
2022/12/13 12:53:54;;;;;;;13.43;10.10;;;;;;;12.45;36.02;98467.00;5076206;28;40124;-82
2022/12/13 12:56:38;;;;;;;10.63;9.43;;;;;;;11.71;36.92;98448.69;5075734;28;40661;-81
2022/12/13 12:59:18;;;;;;;14.23;10.47;;;;;;;11.28;37.32;98464.22;5109772;28;43275;-82
2022/12/13 13:01:57;;;;;;;11.10;9.67;;;;;;;10.81;38.28;98452.53;5094150;28;42288;-81
2022/12/13 13:04:31;;;;;;;12.50;9.90;;;;;;;10.02;39.27;98452.63;5089837;28;39997;-81
2022/12/13 13:07:02;;;;;;;12.17;9.70;;;;;;;9.21;39.99;98441.22;5092118;28;41670;-80
2022/12/13 13:09:32;;;;;;;13.77;9.60;;;;;;;8.40;40.16;98440.97;5091231;28;42892;-80
2022/12/13 13:12:04;;;;;;;11.20;9.17;;;;;;;7.64;42.14;98436.69;5127728;27;43190;-80
2022/12/13 13:14:35;;;;;;;13.10;9.80;;;;;;;6.98;42.64;98428.97;5094761;28;39618;-80
2022/12/13 13:17:35;;;;;;;12.93;9.40;;;;;;;6.29;43.73;98418.69;5093529;28;41260;-80
2022/12/13 13:20:19;;;;;;;14.47;9.80;;;;;;;5.44;45.13;98389.66;5091850;28;43045;-81
2022/12/13 13:22:47;;;;;;;12.73;9.57;;;;;;;5.16;46.17;98416.41;5090149;28;42221;-80
2022/12/13 13:25:24;;;;;;;14.33;9.63;;;;;;;4.65;47.11;98381.22;5075543;28;39052;-80
2022/12/13 13:28:00;;;;;;;14.73;10.63;;;;;;;4.42;47.90;98394.53;5090292;28;41691;-80
2022/12/13 13:30:29;;;;;;;13.50;9.80;;;;;;;4.00;48.62;98367.59;5093277;28;42788;-80
2022/12/13 13:32:58;;;;;;;14.03;10.67;;;;;;;3.72;49.58;98360.91;5092984;28;42089;-80
2022/12/13 13:35:54;;;;;;;14.50;9.30;;;;;;;3.50;50.42;98381.06;5093074;28;39495;-80
2022/12/13 13:38:43;;;;;;;13.40;9.37;;;;;;;3.06;51.29;98348.91;5076303;28;40818;-80
2022/12/13 13:41:43;;;;;;;15.07;9.97;;;;;;;2.89;51.99;98370.47;5076156;28;41647;-80
2022/12/13 13:44:50;;;;;;;11.60;9.07;;;;;;;2.60;52.67;98363.75;5075940;28;42283;-79
2022/12/13 13:47:39;;;;;;;12.17;9.37;;;;;;;2.30;53.79;98337.06;5075892;28;39166;-79
2022/12/13 13:50:37;;;;;;;13.87;8.97;;;;;;;2.13;54.24;98329.84;5090642;28;41933;-79
2022/12/13 13:53:34;;;;;;;12.63;9.20;;;;;;;1.98;54.77;98345.22;5109957;28;41583;-80
2022/12/13 13:56:21;;;;;;;15.53;9.97;;;;;;;1.86;55.85;98348.25;5091706;28;42652;-79
2022/12/13 13:59:28;;;;;;;13.83;9.73;;;;;;;1.71;56.01;98342.69;5123737;27;40078;-80
2022/12/13 14:02:21;;;;;;;13.70;9.93;;;;;;;1.57;56.69;98328.41;5062888;28;40877;-80
